createdAt,value
2022-09-10T00:02:14.548Z,98533.34
2022-09-10T00:04:41.741Z,98538.09
2022-09-10T00:07:08.773Z,98535.50
2022-09-10T00:09:35.947Z,98529.50
2022-09-10T00:12:03.332Z,98533.97
2022-09-10T00:14:30.445Z,98534.81
2022-09-10T00:16:58.917Z,98532.00
2022-09-10T00:19:26.531Z,98534.06
2022-09-10T00:21:53.716Z,98533.06
2022-09-10T00:24:22.565Z,98531.03
2022-09-10T00:26:50.841Z,98519.66
2022-09-10T00:29:18.556Z,98525.16
2022-09-10T00:31:46.070Z,98519.94
2022-09-10T00:34:14.800Z,98524.88
2022-09-10T00:36:43.926Z,98510.59
2022-09-10T00:39:16.081Z,98511.91
2022-09-10T00:41:46.820Z,98516.91
2022-09-10T00:44:55.753Z,98504.34
2022-09-10T00:47:26.713Z,98508.53
2022-09-10T00:49:58.721Z,98517.13
2022-09-10T00:52:27.719Z,98503.06
2022-09-10T00:54:55.298Z,98500.44
2022-09-10T00:57:24.049Z,98499.41
2022-09-10T00:59:55.342Z,98503.06
2022-09-10T01:02:22.475Z,98498.38
2022-09-10T01:04:50.554Z,98497.06
2022-09-10T01:07:21.442Z,98492.16
2022-09-10T01:09:48.946Z,98495.50
2022-09-10T01:12:30.372Z,98489.00
2022-09-10T01:15:22.126Z,98480.66
2022-09-10T01:18:03.881Z,98493.47
2022-09-10T01:20:52.381Z,98480.22
2022-09-10T01:23:52.509Z,98495.34
2022-09-10T01:26:31.717Z,98492.22
2022-09-10T01:29:06.338Z,98491.22
2022-09-10T01:31:42.150Z,98487.56
2022-09-10T01:34:18.809Z,98482.88
2022-09-10T01:36:49.064Z,98481.31
2022-09-10T01:39:19.636Z,98478.97
2022-09-10T01:41:48.413Z,98483.94
2022-09-10T01:44:45.120Z,98475.34
2022-09-10T01:47:23.338Z,98477.97
2022-09-10T01:50:11.213Z,98476.41
2022-09-10T01:52:49.389Z,98471.19
2022-09-10T01:55:30.083Z,98478.25
2022-09-10T01:58:04.238Z,98470.69
2022-09-10T02:00:46.631Z,98473.56
2022-09-10T02:03:17.423Z,98474.88
2022-09-10T02:05:50.084Z,98478.53
2022-09-10T02:08:23.428Z,98486.59
2022-09-10T02:10:53.896Z,98488.44
2022-09-10T02:13:24.205Z,98487.16
2022-09-10T02:16:13.892Z,98476.72
2022-09-10T02:18:45.957Z,98478.28
2022-09-10T02:21:13.427Z,98475.94
2022-09-10T02:23:44.401Z,98490.00
2022-09-10T02:26:14.744Z,98476.19
2022-09-10T02:28:49.623Z,98479.38
2022-09-10T02:31:21.202Z,98471.53
2022-09-10T02:33:49.818Z,98465.56
2022-09-10T02:36:17.205Z,98466.06
2022-09-10T02:38:44.574Z,98468.94
2022-09-10T02:41:11.788Z,98468.94
2022-09-10T02:43:38.847Z,98469.97
2022-09-10T02:46:09.073Z,98465.31
2022-09-10T02:48:40.089Z,98463.72
2022-09-10T02:51:09.114Z,98460.09
2022-09-10T02:53:37.873Z,98455.16
2022-09-10T02:56:07.717Z,98459.34
2022-09-10T02:58:36.393Z,98463.25
2022-09-10T03:01:09.013Z,98466.13
2022-09-10T03:03:39.220Z,98467.44
2022-09-10T03:06:07.191Z,98458.59
2022-09-10T03:08:34.498Z,98466.91
2022-09-10T03:11:01.725Z,98465.34
2022-09-10T03:13:29.368Z,98465.34
2022-09-10T03:16:04.691Z,98470.31
2022-09-10T03:18:35.498Z,98481.75
2022-09-10T03:21:14.866Z,98479.91
2022-09-10T03:23:42.709Z,98478.38
2022-09-10T03:26:10.228Z,98467.16
2022-09-10T03:28:38.088Z,98474.22
2022-09-10T03:31:05.514Z,98485.63
2022-09-10T03:33:37.841Z,98495.53
2022-09-10T03:36:05.512Z,98495.53
2022-09-10T03:38:35.033Z,98492.44
2022-09-10T03:41:03.064Z,98492.16
2022-09-10T03:43:30.938Z,98496.59
2022-09-10T03:45:58.758Z,98492.94
2022-09-10T03:48:26.016Z,98494.75
2022-09-10T03:50:53.154Z,98488.25
2022-09-10T03:53:20.410Z,98485.13
2022-09-10T03:55:50.701Z,98482.78
2022-09-10T03:58:18.881Z,98486.97
2022-09-10T04:00:46.768Z,98488.50
2022-09-10T04:03:14.632Z,98490.31
2022-09-10T04:05:45.362Z,98484.84
2022-09-10T04:08:14.409Z,98497.09
2022-09-10T04:10:44.041Z,98490.34
2022-09-10T04:13:12.930Z,98492.38
2022-09-10T04:15:41.153Z,98498.91
2022-09-10T04:18:08.888Z,98500.22
2022-09-10T04:20:36.590Z,98488.00
2022-09-10T04:23:07.837Z,98492.41
2022-09-10T04:25:37.044Z,98483.03
2022-09-10T04:28:04.424Z,98484.56
2022-09-10T04:30:33.941Z,98483.56
2022-09-10T04:33:01.541Z,98476.50
2022-09-10T04:35:32.341Z,98466.84
2022-09-10T04:38:01.350Z,98473.63
2022-09-10T04:40:28.853Z,98472.59
2022-09-10T04:42:56.226Z,98471.00
2022-09-10T04:45:24.030Z,98472.56
2022-09-10T04:47:54.253Z,98476.50
2022-09-10T04:50:22.033Z,98474.69
2022-09-10T04:53:13.231Z,98477.25
2022-09-10T04:55:43.169Z,98485.03
2022-09-10T04:58:10.618Z,98479.00
2022-09-10T05:00:39.375Z,98487.50
2022-09-10T05:03:08.242Z,98483.75
2022-09-10T05:05:37.253Z,98486.47
2022-09-10T05:08:08.158Z,98472.94
2022-09-10T05:10:38.913Z,98472.69
2022-09-10T05:13:07.513Z,98476.63
2022-09-10T05:15:35.889Z,98471.53
2022-09-10T05:18:04.938Z,98473.19
2022-09-10T05:20:36.474Z,98470.38
2022-09-10T05:23:04.000Z,98476.28
2022-09-10T05:25:31.026Z,98468.00
2022-09-10T05:28:01.189Z,98477.56
2022-09-10T05:30:32.937Z,98480.53
2022-09-10T05:33:00.824Z,98474.97
2022-09-10T05:35:30.321Z,98464.53
2022-09-10T05:37:58.964Z,98471.06
2022-09-10T05:40:26.560Z,98470.94
2022-09-10T05:42:54.409Z,98470.16
2022-09-10T05:45:23.515Z,98474.03
2022-09-10T05:47:51.593Z,98470.81
2022-09-10T05:50:22.100Z,98472.69
2022-09-10T05:52:49.993Z,98461.16
2022-09-10T05:55:18.946Z,98458.00
2022-09-10T05:57:47.495Z,98460.09
2022-09-10T06:00:17.652Z,98454.31
2022-09-10T06:02:53.409Z,98459.41
2022-09-10T06:05:28.934Z,98461.78
2022-09-10T06:07:56.760Z,98456.13
2022-09-10T06:10:25.390Z,98461.78
2022-09-10T06:12:52.788Z,98456.84
2022-09-10T06:15:21.362Z,98456.25
2022-09-10T06:17:50.195Z,98456.25
2022-09-10T06:20:20.252Z,98454.34
2022-09-10T06:22:47.910Z,98457.25
2022-09-10T06:25:15.235Z,98459.31
2022-09-10T06:27:44.628Z,98464.88
2022-09-10T06:30:12.257Z,98452.09
2022-09-10T06:32:41.364Z,98444.56
2022-09-10T06:35:09.946Z,98454.78
2022-09-10T06:37:37.700Z,98451.78
2022-09-10T06:40:09.730Z,98450.31
2022-09-10T06:42:37.205Z,98447.72
2022-09-10T06:45:14.718Z,98437.03
2022-09-10T06:50:56.072Z,98447.41
2022-09-10T06:53:29.378Z,98438.75
2022-09-10T06:55:59.503Z,98445.81
2022-09-10T06:58:28.446Z,98441.19
2022-09-10T07:00:57.404Z,98440.66
2022-09-10T07:03:25.329Z,98451.28
2022-09-10T07:05:54.892Z,98451.72
2022-09-10T07:08:25.670Z,98445.31
2022-09-10T07:10:59.960Z,98439.50
2022-09-10T07:13:27.525Z,98445.66
2022-09-10T07:15:56.908Z,98441.88
2022-09-10T07:18:24.706Z,98442.81
2022-09-10T07:20:52.626Z,98439.53
2022-09-10T07:23:21.834Z,98433.75
2022-09-10T07:25:51.245Z,98438.50
2022-09-10T07:28:47.914Z,98428.66
2022-09-10T07:31:19.748Z,98433.19
2022-09-10T07:33:49.823Z,98429.25
2022-09-10T07:36:18.324Z,98425.66
2022-09-10T07:38:48.286Z,98441.66
2022-09-10T07:41:15.500Z,98432.31
2022-09-10T07:43:43.952Z,98434.03
2022-09-10T07:46:14.227Z,98432.44
2022-09-10T07:48:42.962Z,98425.97
2022-09-10T07:51:11.816Z,98420.59
2022-09-10T07:53:47.510Z,98415.13
2022-09-10T07:56:18.202Z,98417.09
2022-09-10T07:58:45.417Z,98413.31
2022-09-10T08:01:13.573Z,98422.00
2022-09-10T08:03:42.222Z,98420.59
2022-09-10T08:06:12.673Z,98416.25
2022-09-10T08:08:40.317Z,98429.03
2022-09-10T08:11:13.252Z,98425.91
2022-09-10T08:13:45.484Z,98427.22
2022-09-10T08:16:15.799Z,98423.38
2022-09-10T08:18:44.461Z,98428.94
2022-09-10T08:21:13.716Z,98428.06
2022-09-10T08:23:41.262Z,98430.88
2022-09-10T08:26:08.652Z,98433.56
2022-09-10T08:28:37.937Z,98417.19
2022-09-10T08:31:08.718Z,98416.59
2022-09-10T08:33:49.534Z,98406.66
2022-09-10T08:36:18.398Z,98406.63
2022-09-10T08:38:46.320Z,98399.84
2022-09-10T08:41:26.220Z,98407.06
2022-09-10T08:43:57.478Z,98400.75
2022-09-10T08:46:29.693Z,98394.59
2022-09-10T08:49:07.680Z,98384.94
2022-09-10T08:51:39.998Z,98376.91
2022-09-10T08:54:14.569Z,98377.97
2022-09-10T08:56:42.789Z,98375.28
2022-09-10T08:59:21.853Z,98372.78
2022-09-10T09:01:53.464Z,98370.59
2022-09-10T09:04:38.706Z,98366.38
2022-09-10T09:07:14.262Z,98369.38
2022-09-10T09:09:43.381Z,98366.16
2022-09-10T09:12:22.025Z,98359.50
2022-09-10T09:14:57.011Z,98361.06
2022-09-10T09:17:48.088Z,98359.56
2022-09-10T09:20:18.319Z,98354.88
2022-09-10T09:22:52.317Z,98350.88
2022-09-10T09:25:27.915Z,98349.22
2022-09-10T09:27:57.496Z,98345.47
2022-09-10T09:30:35.645Z,98342.25
2022-09-10T09:33:13.367Z,98333.16
2022-09-10T09:35:47.190Z,98322.44
2022-09-10T09:38:21.156Z,98320.63
2022-09-10T09:40:54.648Z,98316.03
2022-09-10T09:43:32.390Z,98306.19
2022-09-10T09:46:00.821Z,98306.63
2022-09-10T09:48:37.686Z,98304.16
2022-09-10T09:51:08.615Z,98299.75
2022-09-10T09:53:35.718Z,98300.81
2022-09-10T09:56:07.156Z,98296.75
2022-09-10T09:58:36.199Z,98296.09
2022-09-10T10:01:13.236Z,98293.41
2022-09-10T10:03:52.371Z,98295.28
2022-09-10T10:06:22.931Z,98296.81
2022-09-10T10:08:57.199Z,98289.84
2022-09-10T10:11:40.694Z,98299.63
2022-09-10T10:14:23.119Z,98299.28
2022-09-10T10:16:52.563Z,98295.78
2022-09-10T10:19:34.002Z,98290.34
2022-09-10T10:22:25.141Z,98293.41
2022-09-10T10:24:54.117Z,98292.72
2022-09-10T10:27:30.425Z,98292.47
2022-09-10T10:30:00.569Z,98278.09
2022-09-10T10:32:44.808Z,98284.34
2022-09-10T10:35:35.149Z,98287.94
2022-09-10T10:38:16.293Z,98277.34
2022-09-10T10:40:48.688Z,98292.41
2022-09-10T10:43:26.025Z,98289.09
2022-09-10T10:46:01.415Z,98279.28
2022-09-10T10:48:40.302Z,98274.09
2022-09-10T10:51:15.045Z,98275.66
2022-09-10T10:54:07.549Z,98281.50
2022-09-10T10:56:38.066Z,98277.16
2022-09-10T10:59:23.666Z,98278.59
2022-09-10T11:01:56.260Z,98269.47
2022-09-10T11:04:30.734Z,98270.75
2022-09-10T11:07:06.056Z,98265.03
2022-09-10T11:09:40.990Z,98261.59
2022-09-10T11:12:12.025Z,98267.19
2022-09-10T11:14:44.491Z,98249.06
2022-09-10T11:17:17.497Z,98248.59
2022-09-10T11:19:56.529Z,98248.44
2022-09-10T11:22:42.069Z,98247.16
2022-09-10T11:25:19.946Z,98244.75
2022-09-10T11:27:51.152Z,98246.88
2022-09-10T11:30:19.287Z,98245.34
2022-09-10T11:32:53.227Z,98245.31
2022-09-10T11:35:24.877Z,98237.94
2022-09-10T11:38:01.052Z,98232.09
2022-09-10T11:40:35.863Z,98240.09
2022-09-10T11:43:07.463Z,98227.91
2022-09-10T11:45:43.412Z,98227.50
2022-09-10T11:48:18.469Z,98222.25
2022-09-10T11:50:51.248Z,98224.50
2022-09-10T11:53:21.880Z,98220.06
2022-09-10T11:56:15.365Z,98218.16
2022-09-10T11:58:53.043Z,98208.09
2022-09-10T12:01:33.838Z,98206.94
2022-09-10T12:04:29.050Z,98208.47
2022-09-10T12:07:04.446Z,98196.59
2022-09-10T12:09:39.791Z,98193.97
2022-09-10T12:12:16.941Z,98189.50
2022-09-10T12:14:44.164Z,98192.66
2022-09-10T12:17:17.084Z,98179.69
2022-09-10T12:19:47.489Z,98181.97
2022-09-10T12:22:20.785Z,98170.50
2022-09-10T12:24:54.721Z,98180.91
2022-09-10T12:27:44.246Z,98169.19
2022-09-10T12:30:59.355Z,98161.88
2022-09-10T12:34:05.408Z,98153.84
2022-09-10T12:37:15.004Z,98142.97
2022-09-10T12:39:42.271Z,98138.31
2022-09-10T12:42:34.938Z,98149.22
2022-09-10T12:45:02.094Z,98139.16
2022-09-10T12:47:40.098Z,98129.94
2022-09-10T12:50:18.980Z,98128.16
2022-09-10T12:53:02.840Z,98131.34
2022-09-10T12:55:42.806Z,98121.59
2022-09-10T12:58:24.096Z,98130.59
2022-09-10T13:01:10.745Z,98131.88
2022-09-10T13:03:50.069Z,98120.09
2022-09-10T13:06:18.309Z,98116.28
2022-09-10T13:08:47.728Z,98112.78
2022-09-10T13:11:19.177Z,98115.44
2022-09-10T13:13:55.703Z,98112.06
2022-09-10T13:16:39.413Z,98111.69
2022-09-10T13:19:43.620Z,98096.75
2022-09-10T13:22:30.302Z,98099.03
2022-09-10T13:25:03.169Z,98091.81
2022-09-10T13:27:39.096Z,98088.38
2022-09-10T13:30:19.434Z,98089.44
2022-09-10T13:32:52.248Z,98084.69
2022-09-10T13:36:19.281Z,98082.53
2022-09-10T13:39:14.538Z,98073.97
2022-09-10T13:42:16.033Z,98073.38
2022-09-10T13:44:59.229Z,98070.19
2022-09-10T13:47:35.836Z,98071.22
2022-09-10T13:50:11.670Z,98073.78
2022-09-10T13:52:39.532Z,98075.22
2022-09-10T13:55:10.184Z,98080.81
2022-09-10T13:57:41.223Z,98080.75
2022-09-10T14:00:19.694Z,98085.22
2022-09-10T14:02:50.524Z,98094.22
2022-09-10T14:05:35.388Z,98083.81
2022-09-10T14:08:06.982Z,98083.34
2022-09-10T14:10:48.635Z,98076.75
2022-09-10T14:13:20.089Z,98078.66
2022-09-10T14:15:47.814Z,98067.69
2022-09-10T14:18:17.875Z,98068.91
2022-09-10T14:20:45.158Z,98065.53
2022-09-10T14:23:14.912Z,98065.19
2022-09-10T14:25:44.252Z,98060.31
2022-09-10T14:28:27.160Z,98058.06
2022-09-10T14:31:20.819Z,98067.13
2022-09-10T14:33:49.522Z,98068.56
2022-09-10T14:36:19.172Z,98065.38
2022-09-10T14:38:54.506Z,98066.44
2022-09-10T14:41:23.216Z,98057.25
2022-09-10T14:44:11.372Z,98065.44
2022-09-10T14:46:51.583Z,98054.72
2022-09-10T14:49:29.011Z,98059.94
2022-09-10T14:51:58.684Z,98051.47
2022-09-10T14:54:25.981Z,98050.63
2022-09-10T14:56:54.325Z,98048.94
2022-09-10T14:59:30.126Z,98038.88
2022-09-10T15:01:58.323Z,98038.72
2022-09-10T15:04:28.483Z,98043.50
2022-09-10T15:07:00.153Z,98049.81
2022-09-10T15:09:29.092Z,98049.66
2022-09-10T15:12:00.132Z,98050.22
2022-09-10T15:14:27.294Z,98053.88
2022-09-10T15:16:54.537Z,98060.50
2022-09-10T15:19:22.974Z,98061.13
2022-09-10T15:21:51.992Z,98059.38
2022-09-10T15:24:20.745Z,98061.03
2022-09-10T15:26:48.805Z,98068.78
2022-09-10T15:29:16.442Z,98079.94
2022-09-10T15:31:44.243Z,98075.97
2022-09-10T15:34:12.183Z,98084.47
2022-09-10T15:36:40.450Z,98078.56
2022-09-10T15:39:12.275Z,98082.94
2022-09-10T15:41:41.846Z,98074.81
2022-09-10T15:44:08.922Z,98073.97
2022-09-10T15:46:36.074Z,98077.25
2022-09-10T15:49:04.281Z,98077.44
2022-09-10T15:51:31.378Z,98078.38
2022-09-10T15:54:02.954Z,98075.16
2022-09-10T15:56:33.627Z,98077.19
2022-09-10T15:59:01.829Z,98071.28
2022-09-10T16:01:29.330Z,98063.75
2022-09-10T16:03:58.419Z,98072.47
2022-09-10T16:06:31.185Z,98076.06
2022-09-10T16:09:02.878Z,98084.69
2022-09-10T16:11:31.217Z,98075.66
2022-09-10T16:14:04.581Z,98068.81
2022-09-10T16:16:33.354Z,98073.69
2022-09-10T16:19:01.131Z,98074.69
2022-09-10T16:21:30.252Z,98091.91
2022-09-10T16:23:59.033Z,98100.78
2022-09-10T16:26:28.340Z,98121.28
2022-09-10T16:28:57.183Z,98126.94
2022-09-10T16:31:27.407Z,98157.78
2022-09-10T16:33:56.502Z,98185.31
2022-09-10T16:36:23.732Z,98204.38
2022-09-10T16:38:53.285Z,98199.41
2022-09-10T16:41:22.262Z,98237.19
2022-09-10T16:43:50.309Z,98230.53
2022-09-10T16:46:18.810Z,98228.19
2022-09-10T16:48:51.665Z,98250.47
2022-09-10T16:51:20.790Z,98268.78
2022-09-10T16:53:55.621Z,98277.59
2022-09-10T16:56:23.894Z,98299.97
2022-09-10T16:58:51.378Z,98320.31
2022-09-10T17:01:18.909Z,98310.53
2022-09-10T17:03:52.159Z,98311.91
2022-09-10T17:06:21.353Z,98320.88
2022-09-10T17:08:50.162Z,98331.50
2022-09-10T17:11:19.838Z,98323.69
2022-09-10T17:13:47.313Z,98314.38
2022-09-10T17:16:16.880Z,98306.56
2022-09-10T17:18:44.571Z,98319.44
2022-09-10T17:21:18.296Z,98313.75
2022-09-10T17:23:46.549Z,98300.56
2022-09-10T17:26:14.082Z,98308.81
2022-09-10T17:28:41.395Z,98306.13
2022-09-10T17:31:08.632Z,98302.16
2022-09-10T17:33:36.197Z,98296.84
2022-09-10T17:36:04.342Z,98309.78
2022-09-10T17:38:34.524Z,98308.19
2022-09-10T17:41:03.253Z,98302.47
2022-09-10T17:43:34.773Z,98310.41
2022-09-10T17:46:03.493Z,98305.44
2022-09-10T17:48:31.466Z,98299.38
2022-09-10T17:50:59.661Z,98295.31
2022-09-10T17:53:26.854Z,98304.91
2022-09-10T17:56:01.318Z,98310.59
2022-09-10T17:58:28.737Z,98320.47
2022-09-10T18:00:58.701Z,98322.56
2022-09-10T18:03:25.861Z,98325.84
2022-09-10T18:05:53.487Z,98330.66
2022-09-10T18:08:21.597Z,98324.56
2022-09-10T18:10:48.791Z,98347.59
2022-09-10T18:13:19.513Z,98337.56
2022-09-10T18:15:46.875Z,98332.03
2022-09-10T18:18:14.028Z,98338.06
2022-09-10T18:20:41.096Z,98338.84
2022-09-10T18:23:08.296Z,98333.59
2022-09-10T18:25:35.475Z,98335.72
2022-09-10T18:28:03.184Z,98348.38
2022-09-10T18:30:31.910Z,98349.72
2022-09-10T18:32:59.051Z,98363.63
2022-09-10T18:35:26.398Z,98372.56
2022-09-10T18:37:54.240Z,98369.94
2022-09-10T18:40:21.600Z,98372.56
2022-09-10T18:42:48.769Z,98375.19
2022-09-10T18:45:17.334Z,98368.06
2022-09-10T18:47:48.030Z,98366.84
2022-09-10T18:50:15.618Z,98374.22
2022-09-10T18:52:42.757Z,98368.97
2022-09-10T18:55:10.027Z,98371.88
2022-09-10T18:57:37.282Z,98374.31
2022-09-10T19:00:05.172Z,98381.38
2022-09-10T19:02:32.350Z,98382.94
2022-09-10T19:05:17.809Z,98382.47
2022-09-10T19:07:46.685Z,98382.47
2022-09-10T19:10:14.019Z,98385.38
2022-09-10T19:12:41.116Z,98395.09
2022-09-10T19:15:09.253Z,98391.13
2022-09-10T19:17:36.365Z,98396.34
2022-09-10T19:20:05.993Z,98397.41
2022-09-10T19:22:33.858Z,98403.72
2022-09-10T19:25:01.434Z,98400.44
2022-09-10T19:27:29.433Z,98399.78
2022-09-10T19:29:56.478Z,98399.28
2022-09-10T19:32:23.598Z,98403.47
2022-09-10T19:34:51.066Z,98403.94
2022-09-10T19:37:19.957Z,98409.47
2022-09-10T19:39:47.673Z,98410.56
2022-09-10T19:42:14.898Z,98413.47
2022-09-10T19:44:41.967Z,98413.88
2022-09-10T19:47:09.163Z,98413.00
2022-09-10T19:49:36.273Z,98407.28
2022-09-10T19:52:04.289Z,98402.63
2022-09-10T19:54:32.834Z,98396.03
2022-09-10T19:56:59.889Z,98401.63
2022-09-10T19:59:27.027Z,98404.22
2022-09-10T20:01:54.157Z,98400.63
2022-09-10T20:04:21.300Z,98406.94
2022-09-10T20:06:50.336Z,98401.09
2022-09-10T20:09:17.659Z,98404.00
2022-09-10T20:11:46.219Z,98401.38
2022-09-10T20:14:14.909Z,98403.34
2022-09-10T20:16:43.462Z,98404.88
2022-09-10T20:19:13.499Z,98396.34
2022-09-10T20:21:42.424Z,98396.63
2022-09-10T20:24:10.290Z,98394.38
2022-09-10T20:26:40.956Z,98396.47
2022-09-10T20:29:12.493Z,98382.34
2022-09-10T20:31:41.190Z,98386.81
2022-09-10T20:34:12.014Z,98390.19
2022-09-10T20:36:42.309Z,98381.00
2022-09-10T20:39:11.291Z,98380.06
2022-09-10T20:41:39.978Z,98389.34
2022-09-10T20:44:07.308Z,98402.47
2022-09-10T20:46:35.970Z,98394.34
2022-09-10T20:49:03.361Z,98386.94
2022-09-10T20:51:32.244Z,98381.41
2022-09-10T20:53:59.354Z,98374.84
2022-09-10T20:56:26.697Z,98386.28
2022-09-10T20:58:53.943Z,98385.94
2022-09-10T21:01:22.784Z,98377.44
2022-09-10T21:03:55.678Z,98390.47
2022-09-10T21:06:25.762Z,98381.13
2022-09-10T21:08:56.103Z,98387.91
2022-09-10T21:11:24.970Z,98390.94
2022-09-10T21:13:53.750Z,98387.47
2022-09-10T21:16:29.062Z,98384.09
2022-09-10T21:19:00.790Z,98377.31
2022-09-10T21:21:30.075Z,98389.81
2022-09-10T21:23:58.851Z,98383.47
2022-09-10T21:26:27.313Z,98382.09
2022-09-10T21:28:57.183Z,98378.41
2022-09-10T21:31:24.675Z,98368.22
2022-09-10T21:33:51.769Z,98369.81
2022-09-10T21:36:21.191Z,98372.63
2022-09-10T21:38:48.765Z,98380.69
2022-09-10T21:41:17.389Z,98379.63
2022-09-10T21:43:46.107Z,98380.41
2022-09-10T21:46:14.225Z,98383.78
2022-09-10T21:48:42.491Z,98384.28
2022-09-10T21:51:13.490Z,98382.72
2022-09-10T21:53:42.810Z,98376.22
2022-09-10T21:56:11.909Z,98374.09
2022-09-10T21:58:39.555Z,98377.47
2022-09-10T22:01:10.697Z,98378.53
2022-09-10T22:03:38.037Z,98372.56
2022-09-10T22:06:07.680Z,98376.22
2022-09-10T22:08:35.713Z,98378.06
2022-09-10T22:11:09.839Z,98374.94
2022-09-10T22:13:38.024Z,98387.06
2022-09-10T22:16:05.914Z,98376.88
2022-09-10T22:18:34.144Z,98384.72
2022-09-10T22:21:01.827Z,98391.31
2022-09-10T22:23:30.473Z,98394.25
2022-09-10T22:26:03.227Z,98399.91
2022-09-10T22:28:34.904Z,98400.50
2022-09-10T22:31:10.381Z,98395.84
2022-09-10T22:33:38.378Z,98396.88
2022-09-10T22:36:10.671Z,98390.38
2022-09-10T22:38:38.078Z,98393.78
2022-09-10T22:41:07.852Z,98389.63
2022-09-10T22:43:36.821Z,98389.91
2022-09-10T22:46:06.868Z,98390.19
2022-09-10T22:48:34.946Z,98394.13
2022-09-10T22:51:02.393Z,98396.53
2022-09-10T22:53:29.582Z,98402.84
2022-09-10T22:55:58.122Z,98395.00
2022-09-10T22:58:26.377Z,98405.22
2022-09-10T23:00:55.233Z,98402.13
2022-09-10T23:03:22.725Z,98395.59
2022-09-10T23:05:49.997Z,98401.34
2022-09-10T23:08:17.128Z,98397.66
2022-09-10T23:10:44.327Z,98386.44
2022-09-10T23:13:11.447Z,98387.50
2022-09-10T23:15:39.121Z,98391.69
2022-09-10T23:18:07.581Z,98389.34
2022-09-10T23:20:34.631Z,98388.84
2022-09-10T23:23:01.955Z,98390.94
2022-09-10T23:25:29.099Z,98388.31
2022-09-10T23:27:56.213Z,98395.69
2022-09-10T23:30:23.399Z,98398.56
2022-09-10T23:32:50.561Z,98388.66
2022-09-10T23:35:19.076Z,98388.47
2022-09-10T23:37:46.307Z,98385.19
2022-09-10T23:40:14.107Z,98382.91
2022-09-10T23:42:41.730Z,98364.97
2022-09-10T23:45:10.042Z,98373.06
2022-09-10T23:47:37.101Z,98377.47
2022-09-10T23:50:05.976Z,98370.69
2022-09-10T23:52:34.547Z,98369.41
2022-09-10T23:55:01.723Z,98359.03
2022-09-10T23:57:29.082Z,98368.97
2022-09-10T23:59:56.555Z,98366.94
